Terminal Aerodrome Forecast
Issued by NWS

Current Version | Previous Version | Graphics & Text | Print | Product List | Glossary On
Versions: 1 2 3 4 5 6 7 8 9 10 11 12 13 14 15 16 17 18 19 20 21 22 23 24 25 26
000
FTUS41 KILN 300400 AAC
TAFLUK
TAF AMD
KLUK 300426Z 3004/3024 28008KT P6SM SCT025 OVC035
     FM300900 30011KT P6SM OVC025
     FM301400 33012KT P6SM BKN028
     FM301800 34011KT P6SM SCT028=

USA.gov is the U.S. government's official web portal to all federal, state and local government web resources and services.